sensor_id;sensor_type;location;lat;lon;timestamp;pressure;altitude;pressure_sealevel;temperature;humidity
63700;BME280;49845;47.130;142.766;2022-09-12T00:00:50;100841.09;;;18.81;71.01
63700;BME280;49845;47.130;142.766;2022-09-12T00:03:34;100839.69;;;19.15;69.03
63700;BME280;49845;47.130;142.766;2022-09-12T00:06:22;100845.00;;;19.35;68.10
63700;BME280;49845;47.130;142.766;2022-09-12T00:09:04;100775.72;;;19.04;67.21
63700;BME280;49845;47.130;142.766;2022-09-12T00:11:52;100844.97;;;19.56;66.97
63700;BME280;49845;47.130;142.766;2022-09-12T00:14:34;100846.28;;;19.66;66.51
63700;BME280;49845;47.130;142.766;2022-09-12T00:17:28;100842.66;;;19.69;65.81
63700;BME280;49845;47.130;142.766;2022-09-12T00:20:11;100804.31;;;19.36;64.28
63700;BME280;49845;47.130;142.766;2022-09-12T00:22:52;100851.16;;;19.77;64.23
63700;BME280;49845;47.130;142.766;2022-09-12T00:25:46;100852.25;;;19.71;64.12
63700;BME280;49845;47.130;142.766;2022-09-12T00:28:25;100846.97;;;19.71;62.59
63700;BME280;49845;47.130;142.766;2022-09-12T00:31:04;100837.81;;;19.78;62.94
63700;BME280;49845;47.130;142.766;2022-09-12T00:33:49;100844.41;;;19.89;63.74
63700;BME280;49845;47.130;142.766;2022-09-12T00:36:35;100802.81;;;19.89;63.19
63700;BME280;49845;47.130;142.766;2022-09-12T00:39:24;100816.38;;;20.21;62.05
63700;BME280;49845;47.130;142.766;2022-09-12T00:42:01;100841.69;;;20.47;62.18
63700;BME280;49845;47.130;142.766;2022-09-12T00:44:51;100823.59;;;20.55;61.39
63700;BME280;49845;47.130;142.766;2022-09-12T00:47:45;100837.38;;;20.81;60.99
63700;BME280;49845;47.130;142.766;2022-09-12T00:50:24;100843.03;;;20.92;61.14
63700;BME280;49845;47.130;142.766;2022-09-12T00:53:07;100843.16;;;20.89;59.09
63700;BME280;49845;47.130;142.766;2022-09-12T00:56:04;100831.28;;;20.79;58.74
63700;BME280;49845;47.130;142.766;2022-09-12T00:58:44;100814.94;;;20.69;59.24
63700;BME280;49845;47.130;142.766;2022-09-12T01:01:27;100804.81;;;20.60;59.54
63700;BME280;49845;47.130;142.766;2022-09-12T01:04:28;100811.91;;;20.59;59.71
63700;BME280;49845;47.130;142.766;2022-09-12T01:07:13;100804.06;;;20.56;59.11
63700;BME280;49845;47.130;142.766;2022-09-12T01:09:51;100804.88;;;20.76;59.57
63700;BME280;49845;47.130;142.766;2022-09-12T01:12:34;100800.03;;;21.01;58.75
63700;BME280;49845;47.130;142.766;2022-09-12T01:15:18;100768.03;;;21.04;58.69
63700;BME280;49845;47.130;142.766;2022-09-12T01:18:06;100803.50;;;21.54;59.22
63700;BME280;49845;47.130;142.766;2022-09-12T01:21:09;100798.25;;;21.70;58.07
63700;BME280;49845;47.130;142.766;2022-09-12T01:30:44;100775.19;;;22.18;56.74
63700;BME280;49845;47.130;142.766;2022-09-12T01:36:50;100772.44;;;22.35;57.01
63700;BME280;49845;47.130;142.766;2022-09-12T01:39:37;100770.63;;;22.36;56.88
63700;BME280;49845;47.130;142.766;2022-09-12T01:42:23;100758.34;;;22.49;59.10
63700;BME280;49845;47.130;142.766;2022-09-12T01:45:08;100765.44;;;22.65;58.27
63700;BME280;49845;47.130;142.766;2022-09-12T01:48:16;100749.31;;;22.52;57.27
63700;BME280;49845;47.130;142.766;2022-09-12T01:51:09;100746.22;;;22.44;57.02
63700;BME280;49845;47.130;142.766;2022-09-12T01:53:50;100732.84;;;22.13;57.61
63700;BME280;49845;47.130;142.766;2022-09-12T01:56:39;100699.34;;;21.79;58.14
63700;BME280;49845;47.130;142.766;2022-09-12T01:59:28;100738.00;;;22.01;59.23
63700;BME280;49845;47.130;142.766;2022-09-12T02:02:20;100744.03;;;22.20;59.48
63700;BME280;49845;47.130;142.766;2022-09-12T02:05:22;100735.56;;;22.44;59.50
63700;BME280;49845;47.130;142.766;2022-09-12T02:08:05;100746.88;;;22.63;58.71
63700;BME280;49845;47.130;142.766;2022-09-12T02:10:55;100692.97;;;22.44;58.46
63700;BME280;49845;47.130;142.766;2022-09-12T02:14:01;100742.91;;;22.70;57.88
63700;BME280;49845;47.130;142.766;2022-09-12T02:16:53;100745.38;;;22.73;58.54
63700;BME280;49845;47.130;142.766;2022-09-12T02:19:48;100723.09;;;22.60;58.63
63700;BME280;49845;47.130;142.766;2022-09-12T02:22:32;100708.78;;;22.47;57.81
63700;BME280;49845;47.130;142.766;2022-09-12T02:25:19;100758.03;;;22.70;59.03
63700;BME280;49845;47.130;142.766;2022-09-12T02:27:58;100745.19;;;22.76;59.54
63700;BME280;49845;47.130;142.766;2022-09-12T02:30:49;100698.56;;;22.69;58.46
63700;BME280;49845;47.130;142.766;2022-09-12T02:33:47;100723.53;;;22.97;58.91
63700;BME280;49845;47.130;142.766;2022-09-12T02:36:43;100716.06;;;23.18;59.86
63700;BME280;49845;47.130;142.766;2022-09-12T02:39:33;100711.78;;;23.44;59.05
63700;BME280;49845;47.130;142.766;2022-09-12T02:42:23;100720.91;;;23.40;58.29
63700;BME280;49845;47.130;142.766;2022-09-12T02:45:01;100721.69;;;23.28;57.48
63700;BME280;49845;47.130;142.766;2022-09-12T02:47:44;100705.69;;;23.28;58.88
63700;BME280;49845;47.130;142.766;2022-09-12T02:50:34;100687.59;;;23.33;58.57
63700;BME280;49845;47.130;142.766;2022-09-12T02:53:19;100695.78;;;23.44;59.03
63700;BME280;49845;47.130;142.766;2022-09-12T02:56:04;100676.78;;;23.48;58.50
63700;BME280;49845;47.130;142.766;2022-09-12T02:58:52;100652.72;;;23.36;58.48
63700;BME280;49845;47.130;142.766;2022-09-12T03:08:14;100648.28;;;23.63;58.07
63700;BME280;49845;47.130;142.766;2022-09-12T03:11:26;100646.16;;;23.68;58.12
63700;BME280;49845;47.130;142.766;2022-09-12T03:14:31;100654.00;;;23.72;57.33
63700;BME280;49845;47.130;142.766;2022-09-12T03:17:22;100653.53;;;23.79;58.55
63700;BME280;49845;47.130;142.766;2022-09-12T03:20:12;100653.13;;;23.85;57.11
63700;BME280;49845;47.130;142.766;2022-09-12T03:23:09;100649.59;;;23.85;57.00
63700;BME280;49845;47.130;142.766;2022-09-12T03:25:50;100644.22;;;23.99;56.41
63700;BME280;49845;47.130;142.766;2022-09-12T03:28:27;100633.53;;;23.99;56.08
63700;BME280;49845;47.130;142.766;2022-09-12T03:31:19;100641.06;;;24.32;55.06
63700;BME280;49845;47.130;142.766;2022-09-12T03:34:23;100630.22;;;24.48;54.31
63700;BME280;49845;47.130;142.766;2022-09-12T03:37:25;100611.13;;;24.15;54.68
63700;BME280;49845;47.130;142.766;2022-09-12T03:40:07;100595.75;;;24.05;54.77
63700;BME280;49845;47.130;142.766;2022-09-12T03:42:41;100595.94;;;24.02;54.77
63700;BME280;49845;47.130;142.766;2022-09-12T03:45:31;100588.06;;;24.14;54.49
63700;BME280;49845;47.130;142.766;2022-09-12T03:48:22;100606.13;;;24.23;55.00
63700;BME280;49845;47.130;142.766;2022-09-12T03:51:01;100587.22;;;24.26;55.36
63700;BME280;49845;47.130;142.766;2022-09-12T03:53:42;100563.72;;;24.18;55.66
63700;BME280;49845;47.130;142.766;2022-09-12T03:56:32;100579.75;;;24.31;55.50
63700;BME280;49845;47.130;142.766;2022-09-12T03:59:46;100578.03;;;24.04;55.58
63700;BME280;49845;47.130;142.766;2022-09-12T04:02:47;100575.00;;;23.96;56.04
63700;BME280;49845;47.130;142.766;2022-09-12T04:05:39;100581.00;;;24.00;56.47
63700;BME280;49845;47.130;142.766;2022-09-12T04:08:21;100561.53;;;23.85;56.27
63700;BME280;49845;47.130;142.766;2022-09-12T04:11:04;100583.59;;;24.14;57.20
63700;BME280;49845;47.130;142.766;2022-09-12T04:14:06;100587.44;;;24.23;57.52
63700;BME280;49845;47.130;142.766;2022-09-12T04:17:02;100539.94;;;23.75;57.91
63700;BME280;49845;47.130;142.766;2022-09-12T04:20:00;100587.78;;;23.91;58.56
63700;BME280;49845;47.130;142.766;2022-09-12T04:22:38;100580.00;;;23.88;58.18
63700;BME280;49845;47.130;142.766;2022-09-12T04:25:23;100524.69;;;23.50;58.26
63700;BME280;49845;47.130;142.766;2022-09-12T04:28:03;100568.00;;;23.54;58.68
63700;BME280;49845;47.130;142.766;2022-09-12T04:30:40;100558.75;;;23.32;60.23
63700;BME280;49845;47.130;142.766;2022-09-12T04:33:19;100554.69;;;23.27;61.51
63700;BME280;49845;47.130;142.766;2022-09-12T04:36:04;100542.56;;;23.35;61.89
63700;BME280;49845;47.130;142.766;2022-09-12T04:38:42;100536.88;;;23.54;62.35
63700;BME280;49845;47.130;142.766;2022-09-12T04:41:21;100525.56;;;23.63;60.89
63700;BME280;49845;47.130;142.766;2022-09-12T04:46:37;100511.81;;;23.84;62.26
63700;BME280;49845;47.130;142.766;2022-09-12T04:49:21;100526.53;;;23.89;62.59
63700;BME280;49845;47.130;142.766;2022-09-12T04:51:58;100516.03;;;23.74;62.00
63700;BME280;49845;47.130;142.766;2022-09-12T04:54:43;100506.56;;;23.55;62.33
63700;BME280;49845;47.130;142.766;2022-09-12T04:57:17;100507.38;;;23.43;63.19
63700;BME280;49845;47.130;142.766;2022-09-12T05:00:04;100477.00;;;23.18;63.49
63700;BME280;49845;47.130;142.766;2022-09-12T05:02:42;100495.63;;;23.33;63.69
63700;BME280;49845;47.130;142.766;2022-09-12T05:05:21;100493.09;;;23.44;63.37
63700;BME280;49845;47.130;142.766;2022-09-12T05:08:14;100492.25;;;23.56;63.36
63700;BME280;49845;47.130;142.766;2022-09-12T05:11:05;100497.75;;;23.67;63.37
63700;BME280;49845;47.130;142.766;2022-09-12T05:14:00;100501.03;;;23.58;62.49
63700;BME280;49845;47.130;142.766;2022-09-12T05:16:38;100492.84;;;23.61;63.09
63700;BME280;49845;47.130;142.766;2022-09-12T05:19:28;100499.13;;;23.60;63.18
63700;BME280;49845;47.130;142.766;2022-09-12T05:22:07;100499.97;;;23.61;63.07
63700;BME280;49845;47.130;142.766;2022-09-12T05:25:05;100507.16;;;23.46;63.26
63700;BME280;49845;47.130;142.766;2022-09-12T05:27:55;100513.09;;;23.24;63.74
63700;BME280;49845;47.130;142.766;2022-09-12T05:30:58;100500.09;;;23.05;64.96
63700;BME280;49845;47.130;142.766;2022-09-12T05:33:48;100522.16;;;22.78;64.99
63700;BME280;49845;47.130;142.766;2022-09-12T05:36:31;100488.13;;;22.26;65.33
63700;BME280;49845;47.130;142.766;2022-09-12T05:39:10;100521.63;;;22.30;66.39
63700;BME280;49845;47.130;142.766;2022-09-12T05:42:23;100515.47;;;22.14;67.62
63700;BME280;49845;47.130;142.766;2022-09-12T05:45:10;100510.22;;;21.98;68.10
63700;BME280;49845;47.130;142.766;2022-09-12T05:47:45;100514.69;;;21.97;68.72
63700;BME280;49845;47.130;142.766;2022-09-12T05:50:24;100504.41;;;21.91;68.70
63700;BME280;49845;47.130;142.766;2022-09-12T05:53:10;100484.78;;;21.64;69.10
63700;BME280;49845;47.130;142.766;2022-09-12T05:56:15;100507.91;;;21.78;69.78
63700;BME280;49845;47.130;142.766;2022-09-12T05:59:19;100523.94;;;21.76;70.12
63700;BME280;49845;47.130;142.766;2022-09-12T06:02:03;100528.09;;;21.66;70.68
63700;BME280;49845;47.130;142.766;2022-09-12T06:04:53;100530.34;;;21.58;71.06
63700;BME280;49845;47.130;142.766;2022-09-12T06:07:35;100533.63;;;21.47;71.17
63700;BME280;49845;47.130;142.766;2022-09-12T06:10:14;100541.09;;;21.40;71.72
63700;BME280;49845;47.130;142.766;2022-09-12T06:13:08;100512.94;;;21.36;71.79
63700;BME280;49845;47.130;142.766;2022-09-12T06:16:05;100478.66;;;21.16;72.52
63700;BME280;49845;47.130;142.766;2022-09-12T06:18:58;100517.94;;;21.42;72.89
63700;BME280;49845;47.130;142.766;2022-09-12T06:22:01;100508.81;;;21.46;71.89
63700;BME280;49845;47.130;142.766;2022-09-12T06:24:47;100515.88;;;21.47;72.01
63700;BME280;49845;47.130;142.766;2022-09-12T06:27:35;100507.31;;;21.42;72.06
63700;BME280;49845;47.130;142.766;2022-09-12T06:30:18;100506.47;;;21.42;72.59
63700;BME280;49845;47.130;142.766;2022-09-12T06:33:04;100510.91;;;21.41;73.08
63700;BME280;49845;47.130;142.766;2022-09-12T06:35:49;100512.94;;;21.36;73.16
63700;BME280;49845;47.130;142.766;2022-09-12T06:38:32;100448.19;;;20.91;73.13
63700;BME280;49845;47.130;142.766;2022-09-12T06:41:12;100514.16;;;21.15;73.53
63700;BME280;49845;47.130;142.766;2022-09-12T06:43:48;100483.31;;;20.80;73.83
63700;BME280;49845;47.130;142.766;2022-09-12T06:46:42;100529.59;;;20.92;74.14
63700;BME280;49845;47.130;142.766;2022-09-12T06:49:30;100533.41;;;20.86;74.95
63700;BME280;49845;47.130;142.766;2022-09-12T06:52:31;100551.50;;;20.80;75.55
63700;BME280;49845;47.130;142.766;2022-09-12T06:55:17;100548.84;;;20.80;75.63
63700;BME280;49845;47.130;142.766;2022-09-12T06:58:06;100548.06;;;20.78;75.82
63700;BME280;49845;47.130;142.766;2022-09-12T07:00:59;100551.81;;;20.74;76.19
63700;BME280;49845;47.130;142.766;2022-09-12T07:03:48;100570.59;;;20.71;76.53
63700;BME280;49845;47.130;142.766;2022-09-12T07:06:37;100582.63;;;20.60;76.80
63700;BME280;49845;47.130;142.766;2022-09-12T07:09:18;100581.38;;;20.50;77.18
63700;BME280;49845;47.130;142.766;2022-09-12T07:11:57;100578.97;;;20.45;77.24
63700;BME280;49845;47.130;142.766;2022-09-12T07:14:42;100548.59;;;20.34;77.33
63700;BME280;49845;47.130;142.766;2022-09-12T07:17:30;100547.69;;;20.17;77.59
63700;BME280;49845;47.130;142.766;2022-09-12T07:20:15;100534.44;;;20.00;77.96
63700;BME280;49845;47.130;142.766;2022-09-12T07:23:11;100545.22;;;19.97;78.54
63700;BME280;49845;47.130;142.766;2022-09-12T07:26:08;100524.91;;;19.78;78.76
63700;BME280;49845;47.130;142.766;2022-09-12T07:28:57;100517.25;;;19.55;79.46
63700;BME280;49845;47.130;142.766;2022-09-12T07:31:54;100556.69;;;19.61;79.96
63700;BME280;49845;47.130;142.766;2022-09-12T07:34:37;100578.84;;;19.60;80.40
63700;BME280;49845;47.130;142.766;2022-09-12T07:37:18;100581.13;;;19.49;80.94
63700;BME280;49845;47.130;142.766;2022-09-12T07:40:06;100528.78;;;18.99;81.18
63700;BME280;49845;47.130;142.766;2022-09-12T07:42:52;100592.91;;;19.24;81.72
63700;BME280;49845;47.130;142.766;2022-09-12T07:45:39;100579.00;;;19.19;81.83
63700;BME280;49845;47.130;142.766;2022-09-12T07:48:27;100552.59;;;18.99;82.33
63700;BME280;49845;47.130;142.766;2022-09-12T07:51:11;100565.59;;;19.05;82.46
63700;BME280;49845;47.130;142.766;2022-09-12T07:53:50;100571.00;;;19.02;82.71
63700;BME280;49845;47.130;142.766;2022-09-12T07:56:36;100557.41;;;18.90;82.95
63700;BME280;49845;47.130;142.766;2022-09-12T07:59:13;100559.06;;;18.93;83.18
63700;BME280;49845;47.130;142.766;2022-09-12T08:02:24;100563.75;;;18.86;82.88
63700;BME280;49845;47.130;142.766;2022-09-12T08:05:12;100536.38;;;18.67;83.24
63700;BME280;49845;47.130;142.766;2022-09-12T08:07:54;100566.78;;;18.79;83.46
63700;BME280;49845;47.130;142.766;2022-09-12T08:10:43;100558.19;;;18.72;83.64
63700;BME280;49845;47.130;142.766;2022-09-12T08:13:33;100542.75;;;18.63;83.98
63700;BME280;49845;47.130;142.766;2022-09-12T08:16:14;100555.06;;;18.64;84.43
63700;BME280;49845;47.130;142.766;2022-09-12T08:19:04;100555.34;;;18.58;84.50
63700;BME280;49845;47.130;142.766;2022-09-12T08:21:42;100555.59;;;18.51;84.60
63700;BME280;49845;47.130;142.766;2022-09-12T08:24:28;100563.41;;;18.54;84.54
63700;BME280;49845;47.130;142.766;2022-09-12T08:27:05;100569.50;;;18.57;84.91
63700;BME280;49845;47.130;142.766;2022-09-12T08:30:05;100577.50;;;18.55;85.13
63700;BME280;49845;47.130;142.766;2022-09-12T08:32:47;100569.78;;;18.50;85.33
63700;BME280;49845;47.130;142.766;2022-09-12T08:35:32;100562.88;;;18.46;85.49
63700;BME280;49845;47.130;142.766;2022-09-12T08:38:11;100557.59;;;18.46;85.62
63700;BME280;49845;47.130;142.766;2022-09-12T08:41:13;100551.84;;;18.37;86.11
63700;BME280;49845;47.130;142.766;2022-09-12T08:44:24;100558.78;;;18.39;86.37
63700;BME280;49845;47.130;142.766;2022-09-12T08:47:29;100571.38;;;18.34;86.68
63700;BME280;49845;47.130;142.766;2022-09-12T08:50:16;100568.25;;;18.24;87.26
63700;BME280;49845;47.130;142.766;2022-09-12T08:53:03;100570.13;;;18.22;87.90
63700;BME280;49845;47.130;142.766;2022-09-12T08:55:42;100583.56;;;18.18;88.30
63700;BME280;49845;47.130;142.766;2022-09-12T08:58:43;100567.69;;;17.97;88.75
63700;BME280;49845;47.130;142.766;2022-09-12T09:01:31;100586.63;;;18.07;89.24
63700;BME280;49845;47.130;142.766;2022-09-12T09:04:54;100575.59;;;17.97;89.75
63700;BME280;49845;47.130;142.766;2022-09-12T09:08:07;100522.94;;;17.71;90.14
63700;BME280;49845;47.130;142.766;2022-09-12T09:10:56;100580.91;;;17.97;89.92
63700;BME280;49845;47.130;142.766;2022-09-12T09:13:51;100560.84;;;17.92;90.42
63700;BME280;49845;47.130;142.766;2022-09-12T09:16:53;100558.38;;;17.87;90.55
63700;BME280;49845;47.130;142.766;2022-09-12T09:19:39;100560.31;;;17.83;90.76
63700;BME280;49845;47.130;142.766;2022-09-12T09:22:30;100563.66;;;17.87;90.64
63700;BME280;49845;47.130;142.766;2022-09-12T09:25:18;100562.81;;;17.86;90.27
63700;BME280;49845;47.130;142.766;2022-09-12T09:27:59;100562.22;;;17.80;90.87
63700;BME280;49845;47.130;142.766;2022-09-12T09:30:44;100569.56;;;17.72;90.99
63700;BME280;49845;47.130;142.766;2022-09-12T09:33:40;100595.88;;;17.75;91.20
63700;BME280;49845;47.130;142.766;2022-09-12T09:36:35;100595.19;;;17.69;91.62
63700;BME280;49845;47.130;142.766;2022-09-12T09:39:43;100568.97;;;17.65;91.82
63700;BME280;49845;47.130;142.766;2022-09-12T09:42:37;100565.66;;;17.60;92.19
63700;BME280;49845;47.130;142.766;2022-09-12T09:45:35;100547.84;;;17.43;92.24
63700;BME280;49845;47.130;142.766;2022-09-12T09:48:31;100580.63;;;17.59;92.41
63700;BME280;49845;47.130;142.766;2022-09-12T09:51:25;100525.59;;;17.27;92.80
63700;BME280;49845;47.130;142.766;2022-09-12T09:54:13;100569.47;;;17.53;93.30
63700;BME280;49845;47.130;142.766;2022-09-12T09:57:38;100573.88;;;17.52;93.08
63700;BME280;49845;47.130;142.766;2022-09-12T10:00:23;100562.09;;;17.39;93.14
63700;BME280;49845;47.130;142.766;2022-09-12T10:03:32;100534.44;;;17.25;93.40
63700;BME280;49845;47.130;142.766;2022-09-12T10:06:28;100557.56;;;17.42;93.76
63700;BME280;49845;47.130;142.766;2022-09-12T10:09:29;100551.66;;;17.36;93.82
63700;BME280;49845;47.130;142.766;2022-09-12T10:12:35;100576.09;;;17.41;93.84
63700;BME280;49845;47.130;142.766;2022-09-12T10:15:32;100576.22;;;17.38;94.19
63700;BME280;49845;47.130;142.766;2022-09-12T10:18:35;100565.47;;;17.20;94.62
63700;BME280;49845;47.130;142.766;2022-09-12T10:21:28;100567.00;;;17.26;94.69
63700;BME280;49845;47.130;142.766;2022-09-12T10:24:18;100509.34;;;16.92;94.86
63700;BME280;49845;47.130;142.766;2022-09-12T10:27:13;100580.03;;;17.31;95.34
63700;BME280;49845;47.130;142.766;2022-09-12T10:30:04;100550.72;;;17.15;95.34
63700;BME280;49845;47.130;142.766;2022-09-12T10:32:44;100574.75;;;17.31;95.57
63700;BME280;49845;47.130;142.766;2022-09-12T10:35:44;100581.63;;;17.35;95.73
63700;BME280;49845;47.130;142.766;2022-09-12T10:38:26;100586.03;;;17.34;95.58
63700;BME280;49845;47.130;142.766;2022-09-12T10:41:12;100586.91;;;17.35;95.95
63700;BME280;49845;47.130;142.766;2022-09-12T10:43:52;100579.78;;;17.37;95.68
63700;BME280;49845;47.130;142.766;2022-09-12T10:47:21;100569.34;;;17.34;95.72
63700;BME280;49845;47.130;142.766;2022-09-12T10:50:29;100566.63;;;17.35;95.78
63700;BME280;49845;47.130;142.766;2022-09-12T10:53:19;100531.75;;;17.05;95.78
63700;BME280;49845;47.130;142.766;2022-09-12T10:56:17;100570.44;;;17.28;96.12
63700;BME280;49845;47.130;142.766;2022-09-12T10:59:13;100566.13;;;17.25;96.38
63700;BME280;49845;47.130;142.766;2022-09-12T11:02:22;100566.25;;;17.22;96.87
63700;BME280;49845;47.130;142.766;2022-09-12T11:05:17;100559.50;;;17.15;97.09
63700;BME280;49845;47.130;142.766;2022-09-12T11:08:06;100573.25;;;17.23;97.11
63700;BME280;49845;47.130;142.766;2022-09-12T11:10:55;100564.41;;;17.24;97.26
63700;BME280;49845;47.130;142.766;2022-09-12T11:13:56;100549.53;;;17.22;97.61
63700;BME280;49845;47.130;142.766;2022-09-12T11:16:49;100550.16;;;17.29;97.19
63700;BME280;49845;47.130;142.766;2022-09-12T11:26:25;100530.56;;;17.12;97.00
63700;BME280;49845;47.130;142.766;2022-09-12T11:29:20;100555.31;;;17.32;97.14
63700;BME280;49845;47.130;142.766;2022-09-12T11:32:38;100550.16;;;17.29;97.02
63700;BME280;49845;47.130;142.766;2022-09-12T11:35:32;100543.19;;;17.28;97.13
63700;BME280;49845;47.130;142.766;2022-09-12T11:38:38;100550.03;;;17.32;97.18
63700;BME280;49845;47.130;142.766;2022-09-12T11:41:39;100541.31;;;17.30;97.10
63700;BME280;49845;47.130;142.766;2022-09-12T11:44:33;100544.75;;;17.32;97.13
63700;BME280;49845;47.130;142.766;2022-09-12T11:47:13;100518.91;;;17.18;97.10
63700;BME280;49845;47.130;142.766;2022-09-12T11:50:03;100541.22;;;17.33;97.09
63700;BME280;49845;47.130;142.766;2022-09-12T11:52:52;100543.03;;;17.31;97.15
63700;BME280;49845;47.130;142.766;2022-09-12T11:55:51;100542.28;;;17.27;97.36
63700;BME280;49845;47.130;142.766;2022-09-12T11:58:38;100541.63;;;17.22;97.32
63700;BME280;49845;47.130;142.766;2022-09-12T12:01:22;100543.28;;;17.24;97.54
63700;BME280;49845;47.130;142.766;2022-09-12T12:04:23;100545.13;;;17.22;97.50
63700;BME280;49845;47.130;142.766;2022-09-12T12:07:17;100547.69;;;17.24;97.39
63700;BME280;49845;47.130;142.766;2022-09-12T12:09:57;100538.94;;;17.23;97.50
63700;BME280;49845;47.130;142.766;2022-09-12T12:12:51;100540.75;;;17.21;97.46
63700;BME280;49845;47.130;142.766;2022-09-12T12:15:35;100538.19;;;17.20;97.58
63700;BME280;49845;47.130;142.766;2022-09-12T12:18:21;100541.69;;;17.20;97.74
63700;BME280;49845;47.130;142.766;2022-09-12T12:21:19;100536.41;;;17.20;97.98
63700;BME280;49845;47.130;142.766;2022-09-12T12:24:14;100501.94;;;17.01;98.01
63700;BME280;49845;47.130;142.766;2022-09-12T12:27:00;100532.97;;;17.18;98.38
63700;BME280;49845;47.130;142.766;2022-09-12T12:29:59;100536.41;;;17.20;98.35
63700;BME280;49845;47.130;142.766;2022-09-12T12:32:56;100543.53;;;17.18;98.33
63700;BME280;49845;47.130;142.766;2022-09-12T12:35:52;100527.91;;;17.12;98.47
63700;BME280;49845;47.130;142.766;2022-09-12T12:38:47;100517.31;;;17.14;98.52
63700;BME280;49845;47.130;142.766;2022-09-12T12:41:47;100483.47;;;17.01;98.79
63700;BME280;49845;47.130;142.766;2022-09-12T12:44:52;100510.34;;;17.11;99.04
63700;BME280;49845;47.130;142.766;2022-09-12T12:47:30;100508.66;;;17.10;99.25
63700;BME280;49845;47.130;142.766;2022-09-12T12:50:24;100512.94;;;17.13;99.52
63700;BME280;49845;47.130;142.766;2022-09-12T12:53:02;100498.19;;;17.07;99.55
63700;BME280;49845;47.130;142.766;2022-09-12T12:56:21;100506.91;;;17.09;99.96
63700;BME280;49845;47.130;142.766;2022-09-12T12:59:05;100503.38;;;17.10;100.00
63700;BME280;49845;47.130;142.766;2022-09-12T13:02:03;100506.78;;;17.12;100.00
63700;BME280;49845;47.130;142.766;2022-09-12T13:04:46;100494.66;;;17.08;100.00
63700;BME280;49845;47.130;142.766;2022-09-12T13:07:32;100479.97;;;17.01;100.00
63700;BME280;49845;47.130;142.766;2022-09-12T13:10:21;100509.56;;;17.09;100.00
63700;BME280;49845;47.130;142.766;2022-09-12T13:13:22;100508.66;;;17.10;100.00
63700;BME280;49845;47.130;142.766;2022-09-12T13:16:07;100475.03;;;16.92;100.00
63700;BME280;49845;47.130;142.766;2022-09-12T13:19:02;100512.19;;;17.09;100.00
63700;BME280;49845;47.130;142.766;2022-09-12T13:21:56;100503.56;;;17.06;100.00
63700;BME280;49845;47.130;142.766;2022-09-12T13:24:47;100499.16;;;17.04;100.00
63700;BME280;49845;47.130;142.766;2022-09-12T13:27:27;100506.19;;;17.06;100.00
63700;BME280;49845;47.130;142.766;2022-09-12T13:30:14;100456.06;;;16.82;100.00
63700;BME280;49845;47.130;142.766;2022-09-12T13:32:54;100505.22;;;17.08;100.00
63700;BME280;49845;47.130;142.766;2022-09-12T13:38:51;100496.34;;;17.09;100.00
63700;BME280;49845;47.130;142.766;2022-09-12T13:42:03;100491.19;;;17.06;100.00
63700;BME280;49845;47.130;142.766;2022-09-12T13:44:48;100493.84;;;17.06;100.00
63700;BME280;49845;47.130;142.766;2022-09-12T13:47:42;100477.34;;;17.01;100.00
63700;BME280;49845;47.130;142.766;2022-09-12T13:50:54;100472.78;;;17.04;100.00
63700;BME280;49845;47.130;142.766;2022-09-12T13:53:41;100475.22;;;17.09;100.00
63700;BME280;49845;47.130;142.766;2022-09-12T13:56:26;100483.97;;;17.11;100.00
63700;BME280;49845;47.130;142.766;2022-09-12T13:59:13;100483.97;;;17.11;100.00
63700;BME280;49845;47.130;142.766;2022-09-12T14:01:59;100454.59;;;16.97;100.00
63700;BME280;49845;47.130;142.766;2022-09-12T14:04:46;100469.09;;;17.09;100.00
63700;BME280;49845;47.130;142.766;2022-09-12T14:07:59;100473.53;;;17.08;100.00
63700;BME280;49845;47.130;142.766;2022-09-12T14:10:43;100466.50;;;17.07;100.00
63700;BME280;49845;47.130;142.766;2022-09-12T14:13:25;100454.38;;;17.03;100.00
63700;BME280;49845;47.130;142.766;2022-09-12T14:16:08;100455.84;;;17.10;100.00
63700;BME280;49845;47.130;142.766;2022-09-12T14:19:11;100427.34;;;16.96;100.00
63700;BME280;49845;47.130;142.766;2022-09-12T14:21:58;100454.13;;;17.09;100.00
63700;BME280;49845;47.130;142.766;2022-09-12T14:24:49;100453.97;;;17.12;100.00
63700;BME280;49845;47.130;142.766;2022-09-12T14:27:27;100427.19;;;17.01;100.00
63700;BME280;49845;47.130;142.766;2022-09-12T14:30:25;100436.56;;;17.08;100.00
63700;BME280;49845;47.130;142.766;2022-09-12T14:33:17;100395.44;;;16.80;100.00
63700;BME280;49845;47.130;142.766;2022-09-12T14:36:06;100441.72;;;17.11;100.00
63700;BME280;49845;47.130;142.766;2022-09-12T14:39:00;100430.34;;;17.09;100.00
63700;BME280;49845;47.130;142.766;2022-09-12T14:41:46;100420.59;;;17.11;100.00
63700;BME280;49845;47.130;142.766;2022-09-12T14:44:36;100420.47;;;17.14;100.00
63700;BME280;49845;47.130;142.766;2022-09-12T14:47:28;100404.50;;;17.17;100.00
63700;BME280;49845;47.130;142.766;2022-09-12T14:50:20;100401.88;;;17.17;100.00
63700;BME280;49845;47.130;142.766;2022-09-12T14:53:22;100382.03;;;17.07;100.00